createdAt,value
2023-10-26T00:05:41.688Z,17.23
2023-10-26T00:15:45.992Z,17.35
2023-10-26T00:25:48.637Z,17.88
2023-10-26T00:35:55.221Z,18.33
2023-10-26T00:45:58.021Z,20.38
2023-10-26T00:56:02.304Z,18.83
2023-10-26T01:06:05.581Z,18.08
2023-10-26T01:16:09.648Z,18.85
2023-10-26T01:26:14.000Z,19.33
2023-10-26T01:36:17.288Z,20.17
2023-10-26T01:46:21.280Z,19.55
2023-10-26T01:56:23.919Z,19.17
2023-10-26T02:06:27.998Z,19.75
2023-10-26T02:16:30.820Z,19.63
2023-10-26T02:26:34.814Z,20.13
2023-10-26T02:36:37.668Z,19.67
2023-10-26T02:46:41.656Z,20.20
2023-10-26T02:56:44.272Z,20.17
2023-10-26T03:06:48.220Z,18.70
2023-10-26T03:16:51.511Z,19.17
2023-10-26T03:26:55.731Z,19.70
2023-10-26T03:36:58.456Z,18.17
2023-10-26T03:47:03.067Z,17.77
2023-10-26T03:57:07.342Z,18.38
2023-10-26T04:07:11.444Z,17.52
2023-10-26T04:17:16.092Z,17.55
2023-10-26T04:27:21.082Z,17.67
2023-10-26T04:37:23.884Z,17.35
2023-10-26T04:47:27.888Z,16.55
2023-10-26T04:57:30.698Z,16.17
2023-10-26T05:07:35.320Z,16.13
2023-10-26T05:17:39.254Z,16.90
2023-10-26T05:27:43.926Z,16.20
2023-10-26T05:37:46.814Z,15.48
2023-10-26T05:47:54.607Z,16.95
2023-10-26T05:57:57.260Z,16.85
2023-10-26T06:08:01.448Z,16.45
2023-10-26T06:18:04.516Z,16.08
2023-10-26T06:28:09.947Z,17.13
2023-10-26T06:38:12.709Z,16.50
2023-10-26T06:48:18.625Z,15.40
2023-10-26T06:58:22.002Z,15.48
2023-10-26T07:08:26.070Z,15.88
2023-10-26T07:18:28.936Z,15.98
2023-10-26T07:28:32.919Z,15.30
2023-10-26T07:38:37.469Z,16.00
2023-10-26T07:48:42.053Z,17.23
2023-10-26T07:58:44.802Z,16.20
2023-10-26T08:08:48.889Z,16.17
2023-10-26T08:18:52.287Z,14.85
2023-10-26T08:29:12.058Z,15.60
2023-10-26T08:39:17.421Z,15.93
2023-10-26T08:49:24.114Z,15.88
2023-10-26T08:59:29.465Z,16.15
2023-10-26T09:09:44.772Z,14.52
2023-10-26T09:19:47.581Z,15.50
2023-10-26T09:29:51.566Z,14.75
2023-10-26T09:40:12.070Z,15.43
2023-10-26T09:50:19.004Z,13.38
2023-10-26T10:00:32.047Z,13.38
2023-10-26T10:10:36.501Z,13.95
2023-10-26T10:20:41.452Z,14.30
2023-10-26T10:30:56.979Z,12.73
2023-10-26T10:41:11.199Z,13.50
2023-10-26T10:51:15.239Z,12.80
2023-10-26T11:01:20.860Z,13.48
2023-10-26T11:11:28.868Z,11.50
2023-10-26T11:21:31.593Z,12.30
2023-10-26T11:31:43.445Z,12.32
2023-10-26T11:41:54.175Z,12.18
2023-10-26T11:52:00.233Z,14.02
2023-10-26T12:02:03.807Z,12.88
2023-10-26T12:12:08.579Z,12.63
2023-10-26T12:22:11.226Z,12.30
2023-10-26T12:32:16.026Z,9.68
2023-10-26T12:42:19.081Z,10.27
2023-10-26T12:52:23.120Z,9.75
2023-10-26T13:02:25.794Z,9.45
2023-10-26T13:12:29.843Z,9.43
2023-10-26T13:22:32.519Z,8.23
2023-10-26T13:32:36.761Z,7.22
2023-10-26T13:42:39.473Z,7.03
2023-10-26T13:52:43.623Z,6.60
2023-10-26T14:02:46.504Z,6.97
2023-10-26T14:12:50.617Z,7.45
2023-10-26T14:22:53.274Z,8.10
2023-10-26T14:32:57.282Z,7.68
2023-10-26T14:43:00.045Z,8.25
2023-10-26T14:53:04.264Z,8.23
2023-10-26T15:03:07.472Z,8.30
2023-10-26T15:13:11.501Z,8.80
2023-10-26T15:23:14.581Z,9.23
2023-10-26T15:33:19.129Z,8.63
2023-10-26T15:43:21.885Z,10.50
2023-10-26T15:53:26.418Z,11.43
2023-10-26T16:03:31.529Z,12.65
2023-10-26T16:13:35.525Z,14.73
2023-10-26T16:23:38.142Z,14.02
2023-10-26T16:33:42.130Z,10.43
2023-10-26T16:43:45.128Z,10.20
2023-10-26T16:53:49.139Z,10.48
2023-10-26T17:03:51.777Z,10.80
2023-10-26T17:13:55.733Z,10.35
2023-10-26T17:23:58.724Z,12.27
2023-10-26T17:34:02.721Z,10.90
2023-10-26T17:44:06.109Z,9.43
2023-10-26T17:54:13.312Z,7.93
2023-10-26T18:04:16.153Z,7.68
2023-10-26T18:14:20.325Z,8.45
2023-10-26T18:24:22.989Z,7.38
2023-10-26T18:34:27.163Z,7.57
2023-10-26T18:44:29.866Z,8.10
2023-10-26T18:54:34.701Z,9.85
2023-10-26T19:04:37.389Z,8.85
2023-10-26T19:14:41.454Z,8.70
2023-10-26T19:24:44.174Z,5.75
2023-10-26T19:34:48.285Z,4.38
2023-10-26T19:44:51.167Z,4.20
2023-10-26T19:54:56.027Z,4.32
2023-10-26T20:04:59.214Z,6.07
2023-10-26T20:15:03.430Z,6.03
2023-10-26T20:25:06.898Z,6.07
2023-10-26T20:35:11.481Z,6.97
2023-10-26T20:45:14.224Z,7.35
2023-10-26T20:55:20.061Z,7.93
2023-10-26T21:05:22.790Z,9.30
2023-10-26T21:15:26.991Z,9.48
2023-10-26T21:25:34.558Z,10.70
2023-10-26T21:35:39.630Z,10.75
2023-10-26T21:45:44.968Z,10.38
2023-10-26T21:55:49.153Z,10.13
2023-10-26T22:05:52.166Z,9.73
2023-10-26T22:15:56.525Z,9.70
2023-10-26T22:25:59.682Z,9.18
2023-10-26T22:36:03.801Z,9.13
2023-10-26T22:46:06.669Z,9.00
2023-10-26T22:56:19.128Z,8.82
2023-10-26T23:06:22.639Z,9.60
2023-10-26T23:16:26.687Z,9.32
2023-10-26T23:26:29.504Z,9.65
2023-10-26T23:36:33.512Z,9.32
2023-10-26T23:46:36.364Z,9.10
2023-10-26T23:56:40.457Z,9.13
